KILN/ILN METAR and TAF weather

Enter ICAO airport designator
Station Type Date Time Source
KILN METAR 2021/05/14 12:54 UTC NOAA

KILN 141254Z AUTO 01006KT 10SM CLR 13/04 A3036 RMK AO2 SLP288 T01280039


Station Type Date Time Source
KILN Decoded METAR 2021/05/14 12:54 UTC NOAA

WILMINGTON INDUSTRIAL AIRPORT , OH, United States (KILN) 39-26N 083-47W 332M
May 14, 2021 - 08:54 AM EDT / 2021.05.14 1254 UTC
Wind: from the N (010 degrees) at 7 MPH (6 KT):0
Visibility: 10 mile(s):0
Sky conditions: clear
Temperature: 55.0 F (12.8 C)
Dew Point: 39.0 F (3.9 C)
Relative Humidity: 54%
Pressure (altimeter): 30.36 in. Hg (1028 hPa)
ob: KILN 141254Z AUTO 01006KT 10SM CLR 13/04 A3036 RMK AO2 SLP288 T01280039
cycle: 13

Station Type Date Time Source
KILN TAF 2021/05/14 12:28 UTC NOAA

TAF KILN 141126Z 1412/1512 VRB03KT P6SM SKC
FM141500 01005KT P6SM SCT060
FM142300 VRB03KT P6SM SCT250

Example: see airport list